Time;durP1;ratioP1;P1;durP2;ratioP2;P2;SDS_P1;SDS_P2;PMS_P1;PMS_P2;Temp;Humidity;BMP_temperature;BMP_pressure;BME280_temperature;BME280_humidity;BME280_pressure;Samples;Min_cycle;Max_cycle;Signal;HPM_P1;HPM_P2
2021/08/03 00:01:03;;;;;;;4.35;1.98;;;;;;;;;;4358546;32;20276;-79
2021/08/03 00:03:31;;;;;;;4.70;2.30;;;;;;;;;;4359343;32;20169;-79
2021/08/03 00:05:57;;;;;;;5.60;2.50;;;;;;;;;;4358969;32;20207;-78
2021/08/03 00:08:34;;;;;;;4.53;2.10;;;;;;;;;;4358325;32;20155;-79
2021/08/03 00:11:09;;;;;;;3.65;2.03;;;;;;;;;;4358007;33;20282;-79
2021/08/03 00:13:37;;;;;;;6.05;2.40;;;;;;;;;;4358892;32;20177;-79
2021/08/03 00:16:10;;;;;;;3.05;1.90;;;;;;;;;;4358087;32;20155;-79
2021/08/03 00:18:36;;;;;;;4.05;1.73;;;;;;;;;;4358798;32;20186;-79
2021/08/03 00:21:11;;;;;;;5.00;2.20;;;;;;;;;;4357990;32;20564;-79
2021/08/03 00:23:37;;;;;;;4.28;2.17;;;;;;;;;;4369714;32;20167;-79
2021/08/03 00:26:05;;;;;;;5.53;2.67;;;;;;;;;;4358074;32;20186;-79
2021/08/03 00:28:31;;;;;;;3.85;2.17;;;;;;;;;;4358353;33;20220;-79
2021/08/03 00:30:56;;;;;;;4.78;2.28;;;;;;;;;;4358235;32;20250;-79
2021/08/03 00:33:22;;;;;;;5.47;2.70;;;;;;;;;;4358637;32;20496;-79
2021/08/03 00:35:56;;;;;;;6.47;2.30;;;;;;;;;;4357894;32;20182;-79
2021/08/03 00:38:35;;;;;;;4.53;2.20;;;;;;;;;;4359381;32;20611;-80
2021/08/03 00:41:11;;;;;;;3.35;2.10;;;;;;;;;;4358353;32;20225;-80
2021/08/03 00:47:13;;;;;;;5.65;2.40;;;;;;;;;;4375321;32;20159;-80
2021/08/03 00:49:55;;;;;;;4.95;2.45;;;;;;;;;;4358110;33;20163;-80
2021/08/03 00:52:42;;;;;;;4.97;2.10;;;;;;;;;;4358227;33;20220;-80
2021/08/03 00:55:08;;;;;;;4.55;2.05;;;;;;;;;;4358171;32;20159;-80
2021/08/03 00:57:34;;;;;;;5.43;2.40;;;;;;;;;;4358021;32;20198;-80
2021/08/03 00:59:59;;;;;;;7.15;2.42;;;;;;;;;;4358115;32;20175;-80
2021/08/03 01:02:27;;;;;;;5.43;2.33;;;;;;;;;;4345906;32;20249;-79
2021/08/03 01:04:53;;;;;;;3.45;2.30;;;;;;;;;;4357799;32;20171;-79
2021/08/03 01:07:24;;;;;;;2.90;2.00;;;;;;;;;;4358662;32;20210;-79
2021/08/03 01:10:00;;;;;;;3.72;2.12;;;;;;;;;;4357434;32;20178;-79
2021/08/03 01:12:36;;;;;;;3.67;1.85;;;;;;;;;;4358150;32;20317;-79
2021/08/03 01:15:10;;;;;;;3.45;2.10;;;;;;;;;;4358326;32;20198;-79
2021/08/03 01:17:43;;;;;;;6.97;2.50;;;;;;;;;;4357729;32;20198;-79
2021/08/03 01:20:32;;;;;;;4.53;2.70;;;;;;;;;;4357607;32;20223;-79
2021/08/03 01:23:23;;;;;;;4.55;2.70;;;;;;;;;;4357314;33;20630;-79
2021/08/03 01:26:07;;;;;;;4.93;3.28;;;;;;;;;;4357347;32;20155;-79
2021/08/03 01:28:33;;;;;;;4.03;2.87;;;;;;;;;;4357311;32;20592;-79
2021/08/03 01:31:01;;;;;;;5.47;2.80;;;;;;;;;;4357261;32;20159;-79
2021/08/03 01:33:28;;;;;;;5.45;3.53;;;;;;;;;;4356915;32;20599;-79
2021/08/03 01:35:55;;;;;;;6.55;3.35;;;;;;;;;;4357186;32;20166;-79
2021/08/03 01:38:22;;;;;;;7.57;3.58;;;;;;;;;;4358284;33;20162;-79
2021/08/03 01:40:49;;;;;;;6.65;4.07;;;;;;;;;;4357150;32;20167;-79
2021/08/03 01:43:14;;;;;;;9.55;4.20;;;;;;;;;;4357078;32;20170;-79
2021/08/03 01:45:41;;;;;;;5.28;3.65;;;;;;;;;;4357148;32;20641;-79
2021/08/03 01:48:08;;;;;;;6.72;4.47;;;;;;;;;;4357061;32;20171;-80
2021/08/03 01:50:33;;;;;;;5.32;3.80;;;;;;;;;;4357114;32;20202;-79
2021/08/03 01:53:04;;;;;;;7.47;4.32;;;;;;;;;;4357024;32;20167;-79
2021/08/03 01:55:29;;;;;;;8.60;3.90;;;;;;;;;;4357543;32;20583;-79
2021/08/03 01:58:04;;;;;;;6.82;3.80;;;;;;;;;;4356999;32;20269;-79
2021/08/03 02:00:30;;;;;;;9.77;4.15;;;;;;;;;;4357027;32;20179;-80
2021/08/03 02:02:55;;;;;;;6.15;4.10;;;;;;;;;;4358337;32;20190;-79
2021/08/03 02:05:22;;;;;;;8.20;4.80;;;;;;;;;;4356939;32;20167;-80
2021/08/03 02:07:50;;;;;;;8.18;4.93;;;;;;;;;;4345041;32;20598;-80
2021/08/03 02:10:34;;;;;;;6.55;4.62;;;;;;;;;;4356877;32;20179;-80
2021/08/03 02:13:00;;;;;;;7.28;4.68;;;;;;;;;;4357130;33;20158;-79
2021/08/03 02:15:25;;;;;;;9.38;4.28;;;;;;;;;;4356791;32;20194;-79
2021/08/03 02:17:51;;;;;;;6.07;4.25;;;;;;;;;;4357289;32;20186;-79
2021/08/03 02:20:16;;;;;;;6.78;4.60;;;;;;;;;;4356777;32;20163;-79
2021/08/03 02:22:44;;;;;;;6.68;4.30;;;;;;;;;;4357243;32;20185;-79
2021/08/03 02:25:10;;;;;;;6.12;4.00;;;;;;;;;;4357142;32;20171;-80
2021/08/03 02:27:38;;;;;;;5.57;3.85;;;;;;;;;;4357466;32;20310;-79
2021/08/03 02:30:04;;;;;;;6.35;4.28;;;;;;;;;;4356684;32;20159;-79
2021/08/03 02:32:51;;;;;;;5.60;3.85;;;;;;;;;;4357196;32;20640;-80
2021/08/03 02:35:18;;;;;;;7.85;5.18;;;;;;;;;;4357339;32;20162;-79
2021/08/03 02:37:52;;;;;;;9.48;4.45;;;;;;;;;;4356641;32;20190;-79
2021/08/03 02:40:20;;;;;;;5.82;4.15;;;;;;;;;;4358032;32;20160;-79
2021/08/03 02:42:45;;;;;;;6.70;4.43;;;;;;;;;;4357052;32;20656;-79
2021/08/03 02:45:19;;;;;;;8.70;4.65;;;;;;;;;;4358199;32;20257;-79
2021/08/03 02:47:51;;;;;;;7.43;4.25;;;;;;;;;;4359240;32;20156;-79
2021/08/03 02:50:20;;;;;;;8.18;4.20;;;;;;;;;;4359096;32;20645;-79
2021/08/03 02:52:47;;;;;;;6.87;4.35;;;;;;;;;;4359110;32;20209;-79
2021/08/03 02:55:30;;;;;;;6.60;4.32;;;;;;;;;;4359392;32;20205;-79
2021/08/03 02:57:58;;;;;;;8.98;4.62;;;;;;;;;;4359393;32;20210;-79
2021/08/03 03:00:24;;;;;;;7.40;5.25;;;;;;;;;;4358755;33;20227;-79
2021/08/03 03:02:52;;;;;;;6.60;4.72;;;;;;;;;;4358951;32;20584;-79
2021/08/03 03:05:33;;;;;;;6.15;4.30;;;;;;;;;;4359335;32;20160;-78
2021/08/03 03:08:07;;;;;;;7.70;4.85;;;;;;;;;;4359125;32;20618;-78
2021/08/03 03:10:35;;;;;;;5.75;4.22;;;;;;;;;;4358740;32;20236;-78
2021/08/03 03:13:42;;;;;;;5.60;4.28;;;;;;;;;;4358847;32;20159;-78
2021/08/03 03:16:08;;;;;;;5.28;4.18;;;;;;;;;;4352529;33;20194;-78
2021/08/03 03:18:37;;;;;;;8.10;3.92;;;;;;;;;;4359247;33;20159;-78
2021/08/03 03:21:03;;;;;;;8.15;4.47;;;;;;;;;;4359223;32;20223;-78
2021/08/03 03:23:35;;;;;;;6.57;4.10;;;;;;;;;;4359294;32;20167;-78
2021/08/03 03:26:01;;;;;;;6.78;4.00;;;;;;;;;;4359835;32;20151;-78
2021/08/03 03:28:36;;;;;;;5.68;3.80;;;;;;;;;;4358665;33;20167;-78
2021/08/03 03:31:05;;;;;;;5.35;3.58;;;;;;;;;;4360804;32;20244;-78
2021/08/03 03:33:30;;;;;;;5.60;3.60;;;;;;;;;;4358976;32;20166;-77
2021/08/03 03:35:58;;;;;;;6.90;3.80;;;;;;;;;;4358636;33;20259;-79
2021/08/03 03:38:25;;;;;;;6.87;3.67;;;;;;;;;;4358528;32;20197;-79
2021/08/03 03:40:51;;;;;;;8.57;4.70;;;;;;;;;;4359013;32;20167;-78
2021/08/03 03:43:17;;;;;;;7.43;4.30;;;;;;;;;;4358309;32;20275;-79
2021/08/03 03:45:48;;;;;;;12.02;5.07;;;;;;;;;;4359965;32;20215;-78
2021/08/03 03:48:16;;;;;;;7.95;4.37;;;;;;;;;;4358461;32;20224;-79
2021/08/03 03:50:45;;;;;;;6.85;4.60;;;;;;;;;;4358809;32;20163;-80
2021/08/03 03:53:13;;;;;;;6.80;4.47;;;;;;;;;;4358380;32;20604;-79
2021/08/03 03:55:42;;;;;;;5.68;3.85;;;;;;;;;;4357581;32;20194;-80
2021/08/03 03:58:08;;;;;;;6.28;4.12;;;;;;;;;;4358692;33;20198;-79
2021/08/03 04:00:35;;;;;;;5.22;3.62;;;;;;;;;;4358298;32;20208;-76
2021/08/03 04:03:01;;;;;;;8.55;4.50;;;;;;;;;;4358538;33;20178;-78
2021/08/03 04:05:27;;;;;;;7.07;4.05;;;;;;;;;;4358160;32;20626;-78
2021/08/03 04:07:55;;;;;;;6.00;3.70;;;;;;;;;;4358751;32;20504;-79
2021/08/03 04:10:30;;;;;;;6.82;4.05;;;;;;;;;;4358194;32;20209;-79
2021/08/03 04:12:59;;;;;;;8.38;3.53;;;;;;;;;;4358027;32;20197;-78
2021/08/03 04:15:28;;;;;;;5.62;3.58;;;;;;;;;;4358485;32;20159;-78
2021/08/03 04:17:56;;;;;;;7.45;3.87;;;;;;;;;;4358084;32;20159;-77
2021/08/03 04:20:24;;;;;;;6.35;3.90;;;;;;;;;;4358540;32;20154;-78
2021/08/03 04:22:52;;;;;;;5.97;3.87;;;;;;;;;;4358358;32;20170;-78
2021/08/03 04:25:24;;;;;;;8.43;3.72;;;;;;;;;;4358974;32;20147;-78
2021/08/03 04:27:50;;;;;;;8.80;3.75;;;;;;;;;;4358511;32;20182;-78
2021/08/03 04:30:36;;;;;;;5.10;3.30;;;;;;;;;;4358276;32;20198;-79
2021/08/03 04:33:01;;;;;;;5.57;3.25;;;;;;;;;;4358242;33;20166;-77
2021/08/03 04:35:26;;;;;;;6.32;2.70;;;;;;;;;;4357934;32;20222;-77
2021/08/03 04:37:55;;;;;;;7.53;3.60;;;;;;;;;;4357825;32;20190;-77
2021/08/03 04:40:29;;;;;;;5.97;2.42;;;;;;;;;;4358023;32;20244;-78
2021/08/03 04:42:55;;;;;;;4.53;2.28;;;;;;;;;;4357999;32;20150;-78
2021/08/03 04:45:26;;;;;;;7.07;3.05;;;;;;;;;;4357581;32;20167;-79
2021/08/03 04:47:52;;;;;;;3.42;2.53;;;;;;;;;;4358543;32;20182;-78
2021/08/03 04:50:29;;;;;;;4.95;2.50;;;;;;;;;;4357045;32;20183;-78
2021/08/03 04:53:02;;;;;;;3.78;2.20;;;;;;;;;;4358538;32;20158;-78
2021/08/03 04:55:30;;;;;;;4.47;2.25;;;;;;;;;;4358600;32;20207;-78
2021/08/03 04:57:59;;;;;;;4.15;1.73;;;;;;;;;;4357739;32;20233;-78
2021/08/03 05:00:41;;;;;;;4.05;2.10;;;;;;;;;;4357532;32;20159;-78
2021/08/03 05:03:07;;;;;;;3.83;1.95;;;;;;;;;;4357609;32;20209;-78
2021/08/03 05:05:32;;;;;;;4.03;2.15;;;;;;;;;;4357524;32;20159;-78
2021/08/03 05:08:05;;;;;;;3.40;2.10;;;;;;;;;;4357396;32;20259;-78
2021/08/03 05:10:33;;;;;;;5.30;2.55;;;;;;;;;;4357553;32;20242;-78
2021/08/03 05:12:59;;;;;;;3.87;2.47;;;;;;;;;;4357507;33;20283;-78
2021/08/03 05:15:25;;;;;;;5.87;2.42;;;;;;;;;;4357448;32;20518;-78
2021/08/03 05:17:50;;;;;;;3.85;2.30;;;;;;;;;;4357280;32;20168;-77
2021/08/03 05:20:16;;;;;;;3.70;2.00;;;;;;;;;;4357292;32;20225;-78
2021/08/03 05:22:42;;;;;;;3.47;1.80;;;;;;;;;;4357444;33;20163;-78
2021/08/03 05:25:07;;;;;;;2.62;1.90;;;;;;;;;;4357567;32;20238;-78
2021/08/03 05:27:38;;;;;;;4.95;2.03;;;;;;;;;;4357700;33;20159;-78
2021/08/03 05:30:04;;;;;;;3.08;1.50;;;;;;;;;;4357808;32;20216;-78
2021/08/03 05:32:32;;;;;;;2.75;1.70;;;;;;;;;;4357708;32;20181;-78
2021/08/03 05:35:00;;;;;;;3.72;1.40;;;;;;;;;;4357343;32;20179;-78
2021/08/03 05:37:33;;;;;;;3.15;1.50;;;;;;;;;;4357468;32;20575;-76
2021/08/03 05:40:02;;;;;;;5.00;1.77;;;;;;;;;;4357495;32;20205;-75
2021/08/03 05:42:48;;;;;;;1.77;1.35;;;;;;;;;;4357440;32;20167;-76
2021/08/03 05:45:49;;;;;;;3.72;1.50;;;;;;;;;;4358858;32;20197;-76
2021/08/03 05:48:23;;;;;;;4.87;1.70;;;;;;;;;;4355958;33;20179;-77
2021/08/03 05:50:58;;;;;;;6.03;2.08;;;;;;;;;;4358167;32;20151;-77
2021/08/03 05:53:32;;;;;;;3.47;1.40;;;;;;;;;;4357065;32;20177;-76
2021/08/03 05:55:58;;;;;;;2.60;1.60;;;;;;;;;;4357646;32;20241;-78
2021/08/03 05:58:31;;;;;;;3.12;1.67;;;;;;;;;;4357034;32;20163;-77
2021/08/03 06:00:56;;;;;;;3.40;1.60;;;;;;;;;;4344227;32;20186;-76
2021/08/03 06:03:25;;;;;;;4.00;2.17;;;;;;;;;;4358204;32;20127;-78
2021/08/03 06:05:50;;;;;;;2.80;1.80;;;;;;;;;;4357529;33;20156;-77
2021/08/03 06:08:17;;;;;;;4.32;1.87;;;;;;;;;;4356944;32;20250;-75
2021/08/03 06:10:44;;;;;;;4.47;1.80;;;;;;;;;;4357146;33;20488;-76
2021/08/03 06:13:11;;;;;;;2.55;1.95;;;;;;;;;;4357554;32;20159;-76
2021/08/03 06:19:06;;;;;;;3.45;2.25;;;;;;;;;;4375061;32;20222;-76
2021/08/03 06:22:07;;;;;;;;;;;;;;;;;;;;;
2021/08/03 06:24:53;;;;;;;4.20;2.25;;;;;;;;;;4310034;32;20176;-79
2021/08/03 06:27:22;;;;;;;4.90;2.37;;;;;;;;;;4365741;32;20174;-78
2021/08/03 06:29:52;;;;;;;4.93;2.12;;;;;;;;;;4362021;32;20159;-78
2021/08/03 06:32:25;;;;;;;5.30;2.30;;;;;;;;;;4361411;32;20193;-79
2021/08/03 06:34:51;;;;;;;3.75;2.00;;;;;;;;;;4348576;33;20159;-79
2021/08/03 06:37:25;;;;;;;3.62;1.92;;;;;;;;;;4348833;32;20155;-79
2021/08/03 06:40:04;;;;;;;3.22;1.90;;;;;;;;;;4362014;33;20536;-80
2021/08/03 06:42:50;;;;;;;2.58;1.80;;;;;;;;;;4349421;32;20206;-78
2021/08/03 06:45:19;;;;;;;3.87;1.83;;;;;;;;;;4348953;32;20599;-79
2021/08/03 06:47:57;;;;;;;4.05;2.10;;;;;;;;;;4349352;32;20214;-80
2021/08/03 06:50:25;;;;;;;4.37;1.70;;;;;;;;;;4357382;32;20192;-79
2021/08/03 06:52:50;;;;;;;3.70;2.15;;;;;;;;;;4357843;33;20223;-79
2021/08/03 06:55:27;;;;;;;6.37;2.17;;;;;;;;;;4362663;33;20537;-80
2021/08/03 06:58:02;;;;;;;4.15;1.98;;;;;;;;;;4349050;32;20185;-80
2021/08/03 07:03:22;;;;;;;3.55;1.73;;;;;;;;;;4331385;33;20151;-78
2021/08/03 07:05:58;;;;;;;3.20;1.60;;;;;;;;;;4348899;32;20225;-79
2021/08/03 07:08:26;;;;;;;4.15;1.85;;;;;;;;;;4348411;32;20159;-79
2021/08/03 07:10:58;;;;;;;3.50;1.40;;;;;;;;;;4346157;32;20193;-79
2021/08/03 07:13:24;;;;;;;3.53;1.50;;;;;;;;;;4346288;32;20151;-78
2021/08/03 07:15:53;;;;;;;3.70;1.70;;;;;;;;;;4346602;33;20186;-79
2021/08/03 07:18:21;;;;;;;5.97;1.75;;;;;;;;;;4346201;33;20190;-79
2021/08/03 07:20:47;;;;;;;5.65;1.75;;;;;;;;;;4346262;33;20624;-77
2021/08/03 07:23:16;;;;;;;4.60;1.77;;;;;;;;;;4346211;32;20171;-76
2021/08/03 07:25:51;;;;;;;3.33;1.40;;;;;;;;;;4346211;33;20205;-79
2021/08/03 07:28:19;;;;;;;4.65;1.37;;;;;;;;;;4346758;33;20217;-79
2021/08/03 07:30:45;;;;;;;3.37;1.17;;;;;;;;;;4344845;33;20180;-79
2021/08/03 07:33:11;;;;;;;3.22;1.25;;;;;;;;;;4343971;32;20600;-77
2021/08/03 07:35:46;;;;;;;2.50;1.20;;;;;;;;;;4378152;32;20207;-79
2021/08/03 07:38:21;;;;;;;;;;;;;;;;;;;;;
2021/08/03 07:40:57;;;;;;;4.32;1.20;;;;;;;;;;4404621;32;20499;-80
2021/08/03 07:43:43;;;;;;;4.15;1.30;;;;;;;;;;4381397;32;20165;-80
2021/08/03 07:46:08;;;;;;;2.65;0.98;;;;;;;;;;4356006;32;20153;-79
2021/08/03 07:49:09;;;;;;;3.10;1.00;;;;;;;;;;4356370;32;20196;-78
2021/08/03 07:51:35;;;;;;;4.62;1.23;;;;;;;;;;4358267;32;20153;-78
2021/08/03 07:54:03;;;;;;;4.55;1.08;;;;;;;;;;4356547;32;20578;-77
2021/08/03 07:56:28;;;;;;;4.12;1.10;;;;;;;;;;4355893;32;20177;-80
2021/08/03 07:58:56;;;;;;;3.67;0.90;;;;;;;;;;4357899;32;20157;-80
2021/08/03 08:01:24;;;;;;;1.35;1.00;;;;;;;;;;4408436;32;20589;-79
2021/08/03 08:03:59;;;;;;;5.68;1.00;;;;;;;;;;4407653;32;20617;-80
2021/08/03 08:06:26;;;;;;;4.65;1.02;;;;;;;;;;4408269;32;20172;-79
2021/08/03 08:08:54;;;;;;;2.65;1.10;;;;;;;;;;4408217;32;20264;-79
2021/08/03 08:11:48;;;;;;;1.75;1.00;;;;;;;;;;4417883;32;20169;-79
2021/08/03 08:14:13;;;;;;;2.33;1.20;;;;;;;;;;4421619;32;20212;-78
2021/08/03 08:16:38;;;;;;;6.25;1.62;;;;;;;;;;4420762;32;20594;-79
2021/08/03 08:19:07;;;;;;;2.22;1.00;;;;;;;;;;4420847;32;20207;-80
2021/08/03 08:21:35;;;;;;;3.37;0.93;;;;;;;;;;4420744;32;20169;-79
2021/08/03 08:24:04;;;;;;;2.22;1.08;;;;;;;;;;4420233;32;20170;-78
2021/08/03 08:26:33;;;;;;;4.07;1.15;;;;;;;;;;4420986;32;20256;-77
2021/08/03 08:29:18;;;;;;;3.83;1.10;;;;;;;;;;4420246;32;20188;-80
2021/08/03 08:31:44;;;;;;;3.62;1.55;;;;;;;;;;4420712;32;20165;-80
2021/08/03 08:34:12;;;;;;;1.42;0.82;;;;;;;;;;4407123;32;20166;-79
2021/08/03 08:36:38;;;;;;;3.25;1.27;;;;;;;;;;4398508;32;20190;-77
2021/08/03 08:39:04;;;;;;;4.53;1.10;;;;;;;;;;4392496;32;20222;-79
2021/08/03 08:41:29;;;;;;;3.65;1.10;;;;;;;;;;4392143;32;20189;-79
2021/08/03 08:44:02;;;;;;;4.43;1.25;;;;;;;;;;4406754;32;20161;-79
2021/08/03 08:49:32;;;;;;;5.70;1.58;;;;;;;;;;4400244;32;20235;-78
2021/08/03 08:51:57;;;;;;;4.62;1.40;;;;;;;;;;4392811;32;20184;-79
2021/08/03 08:54:23;;;;;;;1.75;0.90;;;;;;;;;;4392241;32;20162;-79
2021/08/03 08:56:59;;;;;;;3.83;1.00;;;;;;;;;;4406488;32;20146;-80
2021/08/03 08:59:26;;;;;;;2.62;0.90;;;;;;;;;;4393175;32;20237;-79
2021/08/03 09:01:54;;;;;;;3.87;0.90;;;;;;;;;;4392404;32;20180;-79
2021/08/03 09:04:25;;;;;;;3.10;1.00;;;;;;;;;;4412750;32;20188;-79
2021/08/03 09:07:06;;;;;;;4.43;1.15;;;;;;;;;;4422377;32;20233;-80
2021/08/03 09:09:49;;;;;;;3.83;1.08;;;;;;;;;;4422655;32;20226;-79
2021/08/03 09:12:26;;;;;;;7.90;1.65;;;;;;;;;;4356667;32;20175;-78
2021/08/03 09:14:54;;;;;;;5.53;1.10;;;;;;;;;;4342957;32;20549;-80
2021/08/03 09:17:27;;;;;;;3.22;1.12;;;;;;;;;;4342680;32;20553;-80
2021/08/03 09:19:53;;;;;;;2.45;1.10;;;;;;;;;;4342502;32;20640;-80
2021/08/03 09:22:30;;;;;;;3.60;1.30;;;;;;;;;;4342541;33;20163;-79
2021/08/03 09:25:12;;;;;;;3.95;1.40;;;;;;;;;;4343003;33;20548;-79
2021/08/03 09:30:42;;;;;;;3.12;1.52;;;;;;;;;;4343877;33;20160;-79
2021/08/03 09:33:12;;;;;;;3.37;0.95;;;;;;;;;;4343465;32;20175;-79
2021/08/03 09:35:49;;;;;;;3.75;0.90;;;;;;;;;;4344754;32;20173;-73
2021/08/03 09:38:19;;;;;;;6.12;1.10;;;;;;;;;;4372884;32;20492;-80
2021/08/03 09:41:11;;;;;;;3.12;0.90;;;;;;;;;;4344229;33;20160;-81
2021/08/03 09:43:40;;;;;;;5.30;1.42;;;;;;;;;;4342089;33;20218;-81
2021/08/03 09:46:08;;;;;;;4.60;1.12;;;;;;;;;;4342747;33;20565;-81
2021/08/03 09:48:45;;;;;;;1.80;1.12;;;;;;;;;;4342394;33;20159;-79
2021/08/03 09:51:17;;;;;;;3.20;0.90;;;;;;;;;;4347228;32;20239;-79
2021/08/03 09:54:03;;;;;;;2.42;0.80;;;;;;;;;;4356077;32;20155;-80
2021/08/03 09:56:54;;;;;;;4.05;1.10;;;;;;;;;;4351770;33;20190;-80
2021/08/03 09:59:43;;;;;;;4.30;1.12;;;;;;;;;;4342815;32;20167;-79
2021/08/03 10:02:13;;;;;;;3.53;1.20;;;;;;;;;;4349369;32;20610;-79
2021/08/03 10:04:38;;;;;;;3.87;1.50;;;;;;;;;;4351277;32;20171;-80
2021/08/03 10:07:03;;;;;;;4.60;1.62;;;;;;;;;;4350098;33;20478;-78
2021/08/03 10:09:34;;;;;;;5.22;1.52;;;;;;;;;;4357050;32;20162;-80
2021/08/03 10:12:00;;;;;;;3.90;1.45;;;;;;;;;;4358954;32;20217;-81
2021/08/03 10:14:34;;;;;;;3.00;1.40;;;;;;;;;;4416794;32;20545;-81
2021/08/03 10:17:00;;;;;;;4.05;1.80;;;;;;;;;;4365675;32;20250;-80
2021/08/03 10:19:47;;;;;;;4.60;1.60;;;;;;;;;;4417239;32;20177;-79
2021/08/03 10:22:34;;;;;;;3.50;1.42;;;;;;;;;;4403661;32;20602;-80
2021/08/03 10:25:03;;;;;;;4.35;1.70;;;;;;;;;;4355097;32;20480;-81
2021/08/03 10:27:48;;;;;;;2.62;1.30;;;;;;;;;;4353895;33;20159;-81
2021/08/03 10:30:29;;;;;;;5.70;1.50;;;;;;;;;;4341981;33;20186;-80
2021/08/03 10:32:59;;;;;;;3.37;1.40;;;;;;;;;;4342661;32;20183;-80
2021/08/03 10:35:47;;;;;;;3.53;1.20;;;;;;;;;;4356529;33;20212;-79
2021/08/03 10:38:19;;;;;;;4.50;1.58;;;;;;;;;;4357193;32;20227;-81
2021/08/03 10:40:48;;;;;;;3.05;1.52;;;;;;;;;;4351512;33;20587;-81
2021/08/03 10:43:18;;;;;;;3.67;1.50;;;;;;;;;;4344199;32;20159;-79
2021/08/03 10:45:45;;;;;;;5.60;1.70;;;;;;;;;;4343719;32;20159;-79
2021/08/03 10:48:13;;;;;;;7.47;2.03;;;;;;;;;;4343540;32;20163;-81
2021/08/03 10:51:03;;;;;;;2.47;1.27;;;;;;;;;;4341223;33;20159;-81
2021/08/03 10:53:51;;;;;;;3.92;1.40;;;;;;;;;;4339541;33;20232;-80
2021/08/03 10:56:19;;;;;;;3.72;1.70;;;;;;;;;;4343984;33;20225;-80
2021/08/03 10:58:50;;;;;;;3.28;1.50;;;;;;;;;;4344328;32;20160;-80
2021/08/03 11:01:41;;;;;;;5.05;1.98;;;;;;;;;;4344200;33;20157;-80
2021/08/03 11:04:21;;;;;;;4.45;1.75;;;;;;;;;;4343752;33;20233;-81
2021/08/03 11:06:54;;;;;;;3.78;1.83;;;;;;;;;;4346751;32;20195;-80
2021/08/03 11:10:07;;;;;;;4.68;2.33;;;;;;;;;;4347139;32;20158;-80
2021/08/03 11:12:53;;;;;;;5.43;2.10;;;;;;;;;;4335704;32;20211;-80
2021/08/03 11:15:50;;;;;;;3.47;1.98;;;;;;;;;;4361813;32;20166;-80
2021/08/03 11:18:15;;;;;;;3.55;1.92;;;;;;;;;;4361031;32;20540;-79
2021/08/03 11:20:45;;;;;;;3.83;2.40;;;;;;;;;;4374756;32;20169;-78
2021/08/03 11:23:17;;;;;;;4.57;2.30;;;;;;;;;;4361565;32;20192;-80
2021/08/03 11:25:44;;;;;;;4.00;2.70;;;;;;;;;;4366992;32;20162;-77
2021/08/03 11:28:15;;;;;;;4.22;2.67;;;;;;;;;;4341514;32;20522;-80
2021/08/03 11:30:44;;;;;;;6.35;2.17;;;;;;;;;;4346667;33;20167;-81
2021/08/03 11:33:19;;;;;;;2.65;1.87;;;;;;;;;;4346321;33;20228;-80
2021/08/03 11:35:51;;;;;;;2.22;1.70;;;;;;;;;;4351495;32;20162;-80
2021/08/03 11:38:20;;;;;;;4.22;2.30;;;;;;;;;;4362032;32;20240;-79
2021/08/03 11:43:30;;;;;;;4.95;2.03;;;;;;;;;;4313567;33;20177;-75
2021/08/03 11:46:18;;;;;;;4.15;2.03;;;;;;;;;;4351721;33;20198;-80
2021/08/03 11:48:47;;;;;;;4.65;2.80;;;;;;;;;;4345917;33;20170;-80
2021/08/03 11:54:22;;;;;;;3.65;2.10;;;;;;;;;;4335660;33;20159;-81
2021/08/03 11:57:28;;;;;;;4.65;2.20;;;;;;;;;;4344844;32;20166;-80
2021/08/03 12:03:14;;;;;;;5.28;2.50;;;;;;;;;;4359420;32;20172;-79
2021/08/03 12:08:40;;;;;;;6.43;2.22;;;;;;;;;;4333724;33;20193;-78
2021/08/03 12:11:08;;;;;;;4.60;2.85;;;;;;;;;;4351042;32;20631;-79
2021/08/03 12:13:34;;;;;;;4.82;2.20;;;;;;;;;;4422993;32;20141;-80
2021/08/03 12:16:09;;;;;;;6.30;2.20;;;;;;;;;;4421459;32;20153;-81
2021/08/03 12:19:16;;;;;;;3.60;2.25;;;;;;;;;;4396061;32;20150;-80
2021/08/03 12:21:41;;;;;;;3.37;1.80;;;;;;;;;;4352172;33;20155;-81
2021/08/03 12:24:10;;;;;;;4.35;1.85;;;;;;;;;;4359439;32;20212;-79
2021/08/03 12:27:06;;;;;;;;;;;;;;;;;;;;;
2021/08/03 12:29:53;;;;;;;5.70;2.53;;;;;;;;;;4359372;32;20218;-80
2021/08/03 12:32:54;;;;;;;5.03;2.00;;;;;;;;;;4358001;32;20242;-80
2021/08/03 12:35:39;;;;;;;4.97;2.55;;;;;;;;;;4358457;32;20159;-81
2021/08/03 12:38:14;;;;;;;3.92;2.22;;;;;;;;;;4357973;32;20159;-80
2021/08/03 12:40:40;;;;;;;3.67;2.00;;;;;;;;;;4358208;32;20584;-79
2021/08/03 12:43:05;;;;;;;3.75;1.95;;;;;;;;;;4357751;32;20168;-76
2021/08/03 12:45:33;;;;;;;2.92;2.17;;;;;;;;;;4357574;32;20167;-81
2021/08/03 12:48:08;;;;;;;3.17;2.10;;;;;;;;;;4353918;32;20584;-80
2021/08/03 12:51:07;;;;;;;4.75;1.95;;;;;;;;;;4345287;33;20486;-80
2021/08/03 12:53:42;;;;;;;5.87;1.95;;;;;;;;;;4299924;33;20233;-81
2021/08/03 12:56:28;;;;;;;5.12;1.98;;;;;;;;;;4327288;32;20239;-80
2021/08/03 12:59:06;;;;;;;4.75;2.33;;;;;;;;;;4422316;32;20511;-80
2021/08/03 13:01:37;;;;;;;2.87;2.03;;;;;;;;;;4345351;32;20159;-81
2021/08/03 13:04:02;;;;;;;2.72;1.65;;;;;;;;;;4344870;33;20559;-81
2021/08/03 13:06:31;;;;;;;4.57;2.08;;;;;;;;;;4345067;32;20160;-80
2021/08/03 13:08:56;;;;;;;3.35;2.20;;;;;;;;;;4344955;33;20248;-80
2021/08/03 13:11:21;;;;;;;2.60;1.58;;;;;;;;;;4341995;33;20180;-80
2021/08/03 13:13:47;;;;;;;5.47;2.40;;;;;;;;;;4342315;33;20202;-81
2021/08/03 13:16:15;;;;;;;5.45;2.33;;;;;;;;;;4342613;32;20275;-81
2021/08/03 13:18:46;;;;;;;3.65;3.22;;;;;;;;;;4342283;33;20159;-80
2021/08/03 13:21:11;;;;;;;4.32;3.20;;;;;;;;;;4342984;32;20485;-80
2021/08/03 13:23:36;;;;;;;5.80;3.22;;;;;;;;;;4342307;33;20218;-82
2021/08/03 13:26:02;;;;;;;4.90;3.58;;;;;;;;;;4341758;33;20588;-81
2021/08/03 13:28:27;;;;;;;6.15;4.12;;;;;;;;;;4341936;32;20189;-81
2021/08/03 13:30:53;;;;;;;5.20;4.05;;;;;;;;;;4342249;33;20214;-81
2021/08/03 13:33:18;;;;;;;7.87;3.80;;;;;;;;;;4342281;33;20171;-82
2021/08/03 13:35:43;;;;;;;5.00;3.70;;;;;;;;;;4342520;33;20337;-81
2021/08/03 13:38:09;;;;;;;5.22;3.53;;;;;;;;;;4343625;33;20163;-80
2021/08/03 13:40:37;;;;;;;5.03;3.10;;;;;;;;;;4344229;33;20167;-82
2021/08/03 13:43:04;;;;;;;6.05;3.80;;;;;;;;;;4344898;32;20230;-79
2021/08/03 13:45:30;;;;;;;6.25;3.67;;;;;;;;;;4344802;32;20167;-81
2021/08/03 13:47:55;;;;;;;4.22;3.50;;;;;;;;;;4344862;33;20204;-80
2021/08/03 13:50:20;;;;;;;4.40;3.22;;;;;;;;;;4345263;32;20181;-82
2021/08/03 13:52:46;;;;;;;4.90;3.62;;;;;;;;;;4345063;33;20190;-82
2021/08/03 13:55:11;;;;;;;4.95;4.45;;;;;;;;;;4344391;33;20585;-81
2021/08/03 13:57:46;;;;;;;6.72;4.60;;;;;;;;;;4344303;33;20647;-81
2021/08/03 14:00:19;;;;;;;6.75;4.57;;;;;;;;;;4344817;33;20185;-82
2021/08/03 14:02:48;;;;;;;5.22;3.87;;;;;;;;;;4344591;32;20243;-82
2021/08/03 14:06:01;;;;;;;7.10;6.00;;;;;;;;;;4344617;32;20189;-81
2021/08/03 14:08:39;;;;;;;7.50;5.35;;;;;;;;;;4314801;32;20551;-81
2021/08/03 14:11:16;;;;;;;7.40;6.10;;;;;;;;;;4311444;32;20175;-82
2021/08/03 14:13:51;;;;;;;8.90;6.10;;;;;;;;;;4332835;33;20155;-82
2021/08/03 14:16:27;;;;;;;8.77;7.20;;;;;;;;;;4329469;33;20182;-81
2021/08/03 14:18:55;;;;;;;9.05;6.85;;;;;;;;;;4330566;32;20186;-80
2021/08/03 14:21:47;;;;;;;7.25;6.10;;;;;;;;;;4329713;32;20646;-82
2021/08/03 14:24:39;;;;;;;;;;;;;;;;;;;;;
2021/08/03 14:27:08;;;;;;;7.18;5.55;;;;;;;;;;4337374;33;20446;-80
2021/08/03 14:29:43;;;;;;;10.02;5.82;;;;;;;;;;4329530;32;20520;-80
2021/08/03 14:32:30;;;;;;;9.60;6.20;;;;;;;;;;4330374;32;20147;-81
2021/08/03 14:34:55;;;;;;;8.38;5.62;;;;;;;;;;4333169;32;20608;-81
2021/08/03 14:37:20;;;;;;;11.10;6.47;;;;;;;;;;4344177;33;20250;-80
2021/08/03 14:40:08;;;;;;;9.68;6.53;;;;;;;;;;4341206;32;20208;-81
2021/08/03 14:42:44;;;;;;;8.48;6.00;;;;;;;;;;4317844;32;20626;-80
2021/08/03 14:45:10;;;;;;;9.10;6.90;;;;;;;;;;4317552;32;20577;-81
2021/08/03 14:47:36;;;;;;;10.38;6.28;;;;;;;;;;4317365;32;20205;-80
2021/08/03 14:50:04;;;;;;;6.57;5.50;;;;;;;;;;4317232;32;20503;-81
2021/08/03 14:52:35;;;;;;;9.80;6.43;;;;;;;;;;4316458;32;20597;-81
2021/08/03 14:58:41;;;;;;;10.00;7.47;;;;;;;;;;4370278;32;20204;-79
2021/08/03 15:01:06;;;;;;;12.05;6.90;;;;;;;;;;4360450;32;20297;-81
2021/08/03 15:03:32;;;;;;;12.55;6.93;;;;;;;;;;4335420;32;20163;-80
2021/08/03 15:05:58;;;;;;;11.88;8.02;;;;;;;;;;4331464;32;20197;-79
2021/08/03 15:08:23;;;;;;;10.57;7.70;;;;;;;;;;4331567;32;20164;-79
2021/08/03 15:10:57;;;;;;;11.77;8.25;;;;;;;;;;4331979;32;20190;-79
2021/08/03 15:13:23;;;;;;;12.43;9.10;;;;;;;;;;4343383;32;20174;-80
2021/08/03 15:15:58;;;;;;;;;;;;;;;;;;;;;
2021/08/03 15:18:46;;;;;;;;;;;;;;;;;;;;;
2021/08/03 15:21:29;;;;;;;10.55;8.55;;;;;;;;;;4407812;32;20146;-80
2021/08/03 15:23:55;;;;;;;10.45;7.93;;;;;;;;;;4393667;32;20613;-79
2021/08/03 15:26:20;;;;;;;10.23;7.93;;;;;;;;;;4393526;32;20170;-80
2021/08/03 15:31:49;;;;;;;10.50;8.40;;;;;;;;;;4408253;32;20261;-81
2021/08/03 15:37:38;;;;;;;13.48;9.43;;;;;;;;;;4375797;32;20151;-82
2021/08/03 15:40:29;;;;;;;13.00;8.88;;;;;;;;;;4362346;32;20150;-82
2021/08/03 15:42:54;;;;;;;9.50;8.50;;;;;;;;;;4362459;32;20170;-82
2021/08/03 15:46:19;;;;;;;;;;;;;;;;;;;;;
2021/08/03 15:48:41;;;;;;;13.85;9.48;;;;;;;;;;4358568;32;20239;-81
2021/08/03 15:51:27;;;;;;;9.48;8.57;;;;;;;;;;4381987;32;20507;-81
2021/08/03 15:53:53;;;;;;;11.85;10.02;;;;;;;;;;4344998;32;20147;-82
2021/08/03 15:56:18;;;;;;;14.32;10.88;;;;;;;;;;4331592;32;20171;-82